Time;durP1;ratioP1;P1;durP2;ratioP2;P2;SDS_P1;SDS_P2;PMS_P1;PMS_P2;Temp;Humidity;BMP_temperature;BMP_pressure;BME280_temperature;BME280_humidity;BME280_pressure;Samples;Min_cycle;Max_cycle;Signal;HPM_P1;HPM_P2
2023/09/15 00:01:12;;;;;;;4.63;4.20;;;;;;;15.19;93.89;155262.63;4985632;28;20441;-80
2023/09/15 00:03:39;;;;;;;4.43;3.20;;;;;;;15.21;93.92;155267.81;4959065;28;20446;-80
2023/09/15 00:06:06;;;;;;;4.60;3.90;;;;;;;15.19;93.78;155262.63;5000466;28;20448;-80
2023/09/15 00:08:33;;;;;;;6.83;4.03;;;;;;;15.19;93.75;155262.63;4977080;28;20465;-79
2023/09/15 00:11:00;;;;;;;4.47;3.40;;;;;;;15.20;94.23;155266.50;4972668;28;20438;-80
2023/09/15 00:13:28;;;;;;;3.80;3.10;;;;;;;15.18;93.86;155260.00;4999127;28;20464;-80
2023/09/15 00:15:55;;;;;;;3.37;2.93;;;;;;;15.15;94.11;155253.53;4997937;28;20476;-80
2023/09/15 00:18:25;;;;;;;3.97;3.30;;;;;;;15.12;94.27;155244.41;4996399;28;20487;-80
2023/09/15 00:20:52;;;;;;;4.20;3.80;;;;;;;15.08;94.15;155235.34;4982253;28;21274;-79
2023/09/15 00:23:18;;;;;;;4.40;3.77;;;;;;;15.06;94.12;155228.84;4985060;28;20536;-79
2023/09/15 00:25:45;;;;;;;6.73;3.17;;;;;;;15.01;94.42;155217.13;4982007;28;20456;-79
2023/09/15 00:28:13;;;;;;;4.17;3.50;;;;;;;14.99;94.40;155210.63;4976071;28;20445;-79
2023/09/15 00:30:39;;;;;;;3.77;3.27;;;;;;;14.97;94.87;155205.44;4979947;28;20456;-80
2023/09/15 00:33:06;;;;;;;4.77;3.43;;;;;;;14.93;94.91;155195.06;4992846;28;20454;-80
2023/09/15 00:35:36;;;;;;;3.97;3.30;;;;;;;14.92;94.80;155192.47;4974826;28;20535;-80
2023/09/15 00:38:03;;;;;;;4.43;3.77;;;;;;;14.94;94.66;155197.66;4980204;28;20452;-80
2023/09/15 00:40:30;;;;;;;5.13;3.90;;;;;;;14.91;94.62;155191.16;5004822;28;20479;-79
2023/09/15 00:42:57;;;;;;;5.10;3.50;;;;;;;14.92;94.85;155192.47;4973793;28;20442;-80
2023/09/15 00:45:25;;;;;;;4.37;3.90;;;;;;;14.89;94.84;155184.66;4984368;28;20473;-80
2023/09/15 00:47:52;;;;;;;4.80;3.60;;;;;;;14.88;95.33;155182.09;4986527;28;20455;-80
2023/09/15 00:50:21;;;;;;;5.83;3.90;;;;;;;14.82;95.22;155167.78;4996767;28;20548;-80
2023/09/15 00:52:51;;;;;;;5.80;3.97;;;;;;;14.82;95.34;155166.47;4971887;28;20465;-80
2023/09/15 00:55:20;;;;;;;4.60;3.60;;;;;;;14.78;95.15;155156.06;5000053;28;20479;-80
2023/09/15 00:57:48;;;;;;;3.90;3.07;;;;;;;14.78;95.31;155156.06;4988451;28;20529;-80
2023/09/15 01:00:15;;;;;;;4.37;3.97;;;;;;;14.78;95.60;155157.38;4996834;28;20496;-80
2023/09/15 01:02:42;;;;;;;6.93;4.00;;;;;;;14.81;95.51;155165.19;4999853;28;20457;-79
2023/09/15 01:05:10;;;;;;;5.00;4.50;;;;;;;14.79;95.25;155158.69;4978995;28;20554;-80
2023/09/15 01:07:37;;;;;;;5.00;3.50;;;;;;;14.75;94.86;155148.25;4981772;28;20484;-80
2023/09/15 01:10:07;;;;;;;4.57;3.90;;;;;;;14.75;94.83;155149.56;4987344;28;20474;-80
2023/09/15 01:12:34;;;;;;;4.03;3.63;;;;;;;14.75;95.08;155148.25;4997817;28;20728;-79
2023/09/15 01:15:02;;;;;;;4.20;3.80;;;;;;;14.76;95.34;155152.19;5009001;28;20866;-80
2023/09/15 01:17:34;;;;;;;4.57;3.80;;;;;;;14.87;96.20;155179.47;4970294;28;20829;-80
2023/09/15 01:20:09;;;;;;;5.50;4.20;;;;;;;14.96;96.47;155204.13;4995181;28;20472;-80
2023/09/15 01:23:10;;;;;;;5.60;3.70;;;;;;;15.06;96.61;155228.84;4980268;28;20441;-80
2023/09/15 01:25:55;;;;;;;4.97;3.80;;;;;;;15.13;96.45;155247.03;4976233;28;20448;-81
2023/09/15 01:28:40;;;;;;;4.73;3.90;;;;;;;15.14;96.21;155250.91;4987312;28;20480;-79
2023/09/15 01:31:10;;;;;;;4.53;4.10;;;;;;;15.13;95.44;155248.34;4997962;28;20453;-80
2023/09/15 01:33:36;;;;;;;4.70;3.50;;;;;;;15.12;95.67;155244.41;5005610;28;20460;-80
2023/09/15 01:36:03;;;;;;;4.40;3.70;;;;;;;15.09;95.72;155236.66;4997638;28;20484;-80
2023/09/15 01:38:31;;;;;;;6.13;4.40;;;;;;;15.06;95.88;155230.09;4979061;28;20453;-80
2023/09/15 01:40:58;;;;;;;5.00;4.50;;;;;;;15.01;96.54;155217.13;4974163;28;20449;-81
2023/09/15 01:43:24;;;;;;;4.90;3.70;;;;;;;14.95;96.46;155201.56;4993659;28;20449;-81
2023/09/15 01:45:51;;;;;;;4.30;3.90;;;;;;;14.93;97.11;155196.34;4999116;28;20450;-79
2023/09/15 01:48:19;;;;;;;4.77;4.20;;;;;;;14.89;97.06;155185.97;4983651;28;20536;-80
2023/09/15 01:50:47;;;;;;;6.67;4.27;;;;;;;14.88;96.92;155182.09;5002108;28;20495;-80
2023/09/15 01:53:14;;;;;;;4.60;4.20;;;;;;;14.83;96.83;155169.06;4983454;28;20448;-79
2023/09/15 01:55:41;;;;;;;6.90;4.10;;;;;;;14.80;97.50;155162.56;4970479;28;20484;-79
2023/09/15 01:58:08;;;;;;;5.93;4.50;;;;;;;14.77;98.38;155153.50;4993711;28;20457;-79
2023/09/15 02:00:34;;;;;;;4.70;4.23;;;;;;;14.73;99.01;155143.09;4984736;28;20616;-79
2023/09/15 02:03:01;;;;;;;5.20;4.53;;;;;;;14.70;99.40;155135.28;4999147;28;20880;-79
2023/09/15 02:05:28;;;;;;;5.50;4.30;;;;;;;14.66;98.91;155126.22;4983207;28;20466;-79
2023/09/15 02:07:56;;;;;;;5.10;4.27;;;;;;;14.69;98.82;155134.03;4984412;28;20760;-79
2023/09/15 02:10:22;;;;;;;5.80;5.20;;;;;;;14.68;98.42;155131.41;4984879;28;20456;-79
2023/09/15 02:12:50;;;;;;;5.70;4.50;;;;;;;14.68;98.74;155130.09;4970876;28;20472;-79
2023/09/15 02:15:17;;;;;;;4.80;4.30;;;;;;;14.65;98.28;155123.59;5001727;28;20578;-79
2023/09/15 02:17:43;;;;;;;5.60;4.40;;;;;;;14.53;98.13;155093.72;4983997;28;20972;-79
2023/09/15 02:20:12;;;;;;;5.43;4.40;;;;;;;14.45;98.33;155072.97;4976946;28;20468;-79
2023/09/15 02:22:41;;;;;;;5.33;4.77;;;;;;;14.39;99.06;155057.38;4985222;28;20449;-79
2023/09/15 02:25:09;;;;;;;6.10;3.83;;;;;;;14.36;98.81;155048.28;4972151;28;20468;-79
2023/09/15 02:27:36;;;;;;;5.23;4.20;;;;;;;14.31;98.97;155035.25;4986462;28;21165;-78
2023/09/15 02:30:02;;;;;;;5.37;4.87;;;;;;;14.31;98.58;155036.59;4987954;28;20448;-78
2023/09/15 02:32:29;;;;;;;5.00;4.37;;;;;;;14.25;98.53;155020.94;4979020;28;20563;-79
2023/09/15 02:34:55;;;;;;;4.40;4.00;;;;;;;14.22;98.83;155013.16;5004021;28;20971;-79
2023/09/15 02:37:23;;;;;;;4.73;4.03;;;;;;;14.21;99.09;155010.59;4989488;28;20457;-79
2023/09/15 02:39:51;;;;;;;3.93;3.53;;;;;;;14.19;99.13;155004.09;5003981;28;20511;-79
2023/09/15 02:42:18;;;;;;;5.00;3.93;;;;;;;14.14;98.71;154992.38;4977596;28;20461;-79
2023/09/15 02:44:45;;;;;;;4.70;4.27;;;;;;;14.13;98.68;154988.50;4991288;28;20465;-79
2023/09/15 02:47:12;;;;;;;6.90;4.73;;;;;;;14.12;98.99;154987.19;4972549;28;20564;-79
2023/09/15 02:49:38;;;;;;;5.07;4.57;;;;;;;14.11;98.93;154984.59;4988257;28;20527;-79
2023/09/15 02:52:06;;;;;;;5.17;4.30;;;;;;;14.14;99.06;154992.38;4972141;28;20481;-79
2023/09/15 02:54:33;;;;;;;5.27;3.90;;;;;;;14.19;100.00;155004.09;4987589;28;20481;-79
2023/09/15 02:57:01;;;;;;;5.80;4.60;;;;;;;14.18;100.00;155002.78;4983815;28;20465;-79
2023/09/15 02:59:27;;;;;;;5.43;4.60;;;;;;;14.22;100.00;155013.16;4986279;28;20571;-78
2023/09/15 03:01:54;;;;;;;6.17;4.47;;;;;;;14.25;100.00;155020.94;4960462;28;20538;-79
2023/09/15 03:04:22;;;;;;;5.17;4.30;;;;;;;14.23;100.00;155015.78;4985060;28;20453;-79
2023/09/15 03:06:49;;;;;;;5.50;4.93;;;;;;;14.21;100.00;155010.59;4961557;28;20483;-78
2023/09/15 03:09:16;;;;;;;5.37;4.67;;;;;;;14.19;100.00;155005.34;4980703;28;20580;-80
2023/09/15 03:11:45;;;;;;;6.50;4.57;;;;;;;14.15;100.00;154995.00;4984991;28;20441;-78
2023/09/15 03:14:13;;;;;;;5.40;3.97;;;;;;;14.14;100.00;154992.38;4977901;28;20504;-79
2023/09/15 03:16:42;;;;;;;5.40;3.87;;;;;;;14.11;100.00;154983.31;4983737;28;20452;-80
2023/09/15 03:19:09;;;;;;;4.67;4.23;;;;;;;14.03;100.00;154965.13;4976583;28;20468;-80
2023/09/15 03:21:36;;;;;;;5.50;5.00;;;;;;;14.02;100.00;154962.56;4973364;28;20452;-80
2023/09/15 03:24:03;;;;;;;4.37;3.90;;;;;;;13.98;100.00;154950.81;4983865;28;20456;-79
2023/09/15 03:26:30;;;;;;;5.33;4.33;;;;;;;13.87;100.00;154922.31;4975112;28;20481;-80
2023/09/15 03:28:57;;;;;;;5.53;4.70;;;;;;;13.75;100.00;154892.44;4975758;28;20476;-80
2023/09/15 03:31:25;;;;;;;5.00;4.40;;;;;;;13.65;100.00;154866.50;4981307;28;20498;-79
2023/09/15 03:33:53;;;;;;;5.10;4.40;;;;;;;13.62;100.00;154857.38;4992088;28;20535;-78
2023/09/15 03:36:21;;;;;;;5.90;4.90;;;;;;;13.58;100.00;154847.03;4977803;28;21528;-81
2023/09/15 03:38:48;;;;;;;5.83;4.80;;;;;;;13.62;100.00;154857.38;4965205;28;20477;-81
2023/09/15 03:41:15;;;;;;;6.50;4.50;;;;;;;13.66;100.00;154867.78;4982145;28;20488;-81
2023/09/15 03:43:42;;;;;;;5.90;4.87;;;;;;;13.65;100.00;154866.50;4983344;28;20452;-81
2023/09/15 03:46:09;;;;;;;6.00;5.40;;;;;;;13.69;100.00;154875.53;4967898;28;20496;-81
2023/09/15 03:48:37;;;;;;;6.60;5.30;;;;;;;13.75;100.00;154891.13;4999512;28;20441;-82
2023/09/15 03:51:04;;;;;;;6.17;4.60;;;;;;;13.71;100.00;154882.06;4983359;28;20524;-82
2023/09/15 03:53:30;;;;;;;4.80;4.30;;;;;;;13.78;100.00;154898.91;4977600;28;20515;-83
2023/09/15 03:55:57;;;;;;;6.97;5.07;;;;;;;13.71;100.00;154880.78;4977918;28;20467;-82
2023/09/15 03:58:24;;;;;;;8.53;5.40;;;;;;;13.71;100.00;154882.06;4986717;28;20475;-82
2023/09/15 04:00:50;;;;;;;6.20;5.27;;;;;;;13.64;100.00;154863.88;4965149;28;20517;-81
2023/09/15 04:03:20;;;;;;;6.10;5.03;;;;;;;13.58;100.00;154847.03;4979796;28;20464;-82
2023/09/15 04:05:48;;;;;;;6.03;4.50;;;;;;;13.47;100.00;154819.78;4973444;28;20832;-82
2023/09/15 04:08:15;;;;;;;7.87;4.80;;;;;;;13.40;100.00;154801.56;4984804;28;20740;-82
2023/09/15 04:10:42;;;;;;;4.87;4.07;;;;;;;13.40;100.00;154801.56;4975113;28;20984;-81
2023/09/15 04:13:11;;;;;;;5.90;4.53;;;;;;;13.40;100.00;154802.88;4974490;28;20470;-82
2023/09/15 04:15:39;;;;;;;5.07;4.50;;;;;;;13.39;100.00;154800.31;4983495;28;20564;-81
2023/09/15 04:18:08;;;;;;;5.93;5.33;;;;;;;13.40;100.00;154802.88;4985670;28;20476;-82
2023/09/15 04:20:34;;;;;;;5.43;4.87;;;;;;;13.39;100.00;154800.31;4979123;28;20465;-81
2023/09/15 04:23:03;;;;;;;5.10;4.43;;;;;;;13.43;100.00;154810.66;4970951;28;20461;-81
2023/09/15 04:25:29;;;;;;;6.80;6.10;;;;;;;13.51;100.00;154830.13;4977500;28;20450;-82
2023/09/15 04:27:56;;;;;;;7.00;5.93;;;;;;;13.49;100.00;154823.66;4988640;28;20475;-81
2023/09/15 04:30:23;;;;;;;7.30;5.30;;;;;;;13.50;100.00;154827.56;4999436;28;20454;-82
2023/09/15 04:32:55;;;;;;;6.13;5.53;;;;;;;13.41;100.00;154805.50;4972916;28;20579;-82
2023/09/15 04:35:22;;;;;;;6.53;4.80;;;;;;;13.37;100.00;154795.09;4980549;28;20508;-81
2023/09/15 04:37:48;;;;;;;6.20;5.40;;;;;;;13.31;100.00;154778.25;5000620;28;20484;-80
2023/09/15 04:40:17;;;;;;;6.00;5.27;;;;;;;13.26;100.00;154766.53;4972276;28;20813;-81
2023/09/15 04:42:44;;;;;;;5.53;4.80;;;;;;;13.24;100.00;154760.03;4974854;28;20446;-81
2023/09/15 04:45:11;;;;;;;5.87;4.83;;;;;;;13.22;100.00;154754.88;4992500;28;20466;-80
2023/09/15 04:47:40;;;;;;;6.20;4.43;;;;;;;13.24;100.00;154761.34;4987519;28;20467;-80
2023/09/15 04:50:12;;;;;;;5.17;4.50;;;;;;;13.26;100.00;154766.53;4960470;28;20476;-81
2023/09/15 04:52:38;;;;;;;8.40;4.60;;;;;;;13.24;100.00;154761.34;4998433;28;20456;-81
2023/09/15 04:55:05;;;;;;;6.90;5.20;;;;;;;13.23;100.00;154758.78;4978472;28;21048;-81
2023/09/15 04:57:35;;;;;;;5.60;4.23;;;;;;;13.24;100.00;154761.34;4978396;28;20445;-81
2023/09/15 05:00:11;;;;;;;5.87;5.00;;;;;;;13.21;100.00;154753.56;4953598;28;20486;-81
2023/09/15 05:02:38;;;;;;;5.63;5.03;;;;;;;13.24;100.00;154761.34;4959777;28;20444;-81
2023/09/15 05:05:05;;;;;;;8.60;6.07;;;;;;;13.29;100.00;154773.06;4950950;28;20543;-82
2023/09/15 05:07:33;;;;;;;7.37;6.17;;;;;;;13.33;100.00;154784.72;4942787;28;20826;-80
2023/09/15 05:10:00;;;;;;;7.07;6.07;;;;;;;13.38;100.00;154797.69;4946961;28;20555;-81
2023/09/15 05:12:30;;;;;;;7.83;4.90;;;;;;;13.35;100.00;154788.59;4944773;28;20494;-81
2023/09/15 05:14:58;;;;;;;5.90;4.90;;;;;;;13.33;100.00;154784.72;4964151;28;20882;-81
2023/09/15 05:17:26;;;;;;;6.90;5.97;;;;;;;13.35;100.00;154788.59;4936013;28;20496;-80
2023/09/15 05:19:56;;;;;;;8.17;6.20;;;;;;;13.44;100.00;154811.97;4945395;28;21041;-82
2023/09/15 05:22:23;;;;;;;6.13;5.47;;;;;;;13.42;100.00;154806.81;4925806;28;20542;-82
2023/09/15 05:24:50;;;;;;;6.40;5.73;;;;;;;13.45;100.00;154813.28;4942371;28;20459;-82
2023/09/15 05:27:18;;;;;;;6.97;5.87;;;;;;;13.53;100.00;154835.31;4944865;28;20458;-82
2023/09/15 05:29:45;;;;;;;7.70;6.87;;;;;;;13.59;100.00;154850.91;4941003;28;20589;-82
2023/09/15 05:32:13;;;;;;;7.17;5.90;;;;;;;13.65;100.00;154866.50;4961295;28;20458;-82
2023/09/15 05:34:41;;;;;;;7.70;5.37;;;;;;;13.70;100.00;154879.47;4945135;28;20464;-83
2023/09/15 05:37:08;;;;;;;7.37;5.83;;;;;;;13.71;100.00;154882.06;4943193;28;20562;-83
2023/09/15 05:39:34;;;;;;;7.17;6.43;;;;;;;13.78;100.00;154898.91;4946455;28;20510;-82
2023/09/15 05:42:01;;;;;;;8.37;5.93;;;;;;;13.76;100.00;154895.06;4961983;28;20904;-82
2023/09/15 05:44:28;;;;;;;7.40;6.47;;;;;;;13.89;100.00;154928.81;4946695;28;20474;-82
2023/09/15 05:46:54;;;;;;;7.80;7.00;;;;;;;14.03;100.00;154965.13;4960612;28;20458;-84
2023/09/15 05:49:22;;;;;;;6.50;5.90;;;;;;;14.12;100.00;154987.19;4963719;28;20834;-82
2023/09/15 05:51:49;;;;;;;10.40;6.60;;;;;;;14.24;100.00;155017.09;4955997;28;20478;-81
2023/09/15 05:54:16;;;;;;;8.70;6.97;;;;;;;14.32;100.00;155039.16;4952644;28;20468;-81
2023/09/15 05:56:43;;;;;;;6.87;6.00;;;;;;;14.35;100.00;155046.97;4943654;28;21036;-82
2023/09/15 05:59:09;;;;;;;6.10;5.50;;;;;;;14.41;100.00;155062.56;4951354;28;20499;-82
2023/09/15 06:01:37;;;;;;;7.30;6.13;;;;;;;14.50;100.00;155085.97;4976502;28;20462;-82
2023/09/15 06:04:05;;;;;;;7.13;5.60;;;;;;;14.58;100.00;155105.44;4964348;28;20553;-83
2023/09/15 06:06:34;;;;;;;7.43;6.43;;;;;;;14.75;100.00;155148.25;4993372;28;20814;-83
2023/09/15 06:09:00;;;;;;;9.53;6.20;;;;;;;14.90;100.00;155187.28;4958324;28;20562;-83
2023/09/15 06:11:28;;;;;;;6.90;6.00;;;;;;;15.14;100.00;155250.91;4990660;28;20459;-83
2023/09/15 06:13:54;;;;;;;7.30;6.43;;;;;;;15.41;100.00;155319.78;4979309;28;20457;-83
2023/09/15 06:16:22;;;;;;;8.23;6.43;;;;;;;15.63;100.00;155375.72;4984382;28;20484;-83
2023/09/15 06:18:48;;;;;;;8.03;6.53;;;;;;;15.82;100.00;155426.44;4976134;28;20494;-83
2023/09/15 06:21:15;;;;;;;6.63;5.97;;;;;;;16.05;100.00;155484.94;4984727;28;21244;-82
2023/09/15 06:23:43;;;;;;;7.60;6.73;;;;;;;16.29;100.00;155547.34;4977143;28;20883;-84
2023/09/15 06:26:10;;;;;;;6.70;5.37;;;;;;;16.44;98.67;155585.09;4951773;28;20447;-84
2023/09/15 06:28:37;;;;;;;5.67;5.10;;;;;;;16.70;98.46;155651.47;4960168;28;20446;-84
2023/09/15 06:31:04;;;;;;;6.30;5.30;;;;;;;16.88;97.43;155698.31;4990131;28;20512;-84
2023/09/15 06:33:31;;;;;;;10.30;5.50;;;;;;;17.08;97.02;155750.34;4977997;28;20540;-83
2023/09/15 06:35:57;;;;;;;6.23;5.63;;;;;;;17.23;95.82;155789.41;4965187;28;20490;-84
2023/09/15 06:38:45;;;;;;;6.33;5.00;;;;;;;17.40;95.05;155833.63;4976941;28;20458;-84
2023/09/15 06:41:14;;;;;;;7.40;5.80;;;;;;;17.62;94.06;155889.66;4984793;28;20459;-84
2023/09/15 06:43:40;;;;;;;6.80;4.90;;;;;;;17.78;92.64;155931.31;4986261;28;21016;-84
2023/09/15 06:46:11;;;;;;;6.53;5.30;;;;;;;17.85;91.37;155948.22;4989203;28;20441;-84
2023/09/15 06:48:37;;;;;;;5.30;4.80;;;;;;;18.03;91.21;155995.16;4972190;28;20512;-85
2023/09/15 06:51:04;;;;;;;5.70;4.80;;;;;;;18.21;89.91;156042.00;4971850;28;21003;-84
2023/09/15 06:53:31;;;;;;;6.47;4.30;;;;;;;18.40;89.58;156091.47;4978376;28;20525;-84
2023/09/15 06:55:57;;;;;;;6.90;5.60;;;;;;;18.63;88.47;156150.16;4965794;28;20482;-85
2023/09/15 06:58:26;;;;;;;5.57;4.87;;;;;;;18.79;87.19;156191.84;4987229;28;20514;-84
2023/09/15 07:00:55;;;;;;;5.10;4.60;;;;;;;18.98;86.18;156241.38;4962542;28;20879;-84
2023/09/15 07:03:21;;;;;;;7.07;5.40;;;;;;;19.22;85.32;156303.88;4948022;28;20442;-84
2023/09/15 07:05:48;;;;;;;6.13;5.53;;;;;;;19.29;83.69;156322.16;4973461;28;20485;-85
2023/09/15 07:08:15;;;;;;;5.63;5.10;;;;;;;19.28;83.11;156319.53;4974893;28;20460;-84
2023/09/15 07:10:41;;;;;;;5.93;5.33;;;;;;;19.31;83.41;156326.06;4981705;28;20477;-85
2023/09/15 07:13:08;;;;;;;5.70;5.10;;;;;;;19.39;82.40;156346.97;4965009;28;20461;-84
2023/09/15 07:15:36;;;;;;;6.37;5.70;;;;;;;19.56;83.11;156390.00;4967199;28;20480;-85
2023/09/15 07:18:05;;;;;;;5.90;5.33;;;;;;;19.54;81.58;156384.78;4974834;28;20557;-85
2023/09/15 07:20:32;;;;;;;7.17;6.17;;;;;;;19.46;82.15;156363.94;4974599;28;21057;-85
2023/09/15 07:22:59;;;;;;;6.80;5.37;;;;;;;19.46;83.05;156363.94;4975163;28;20458;-85
2023/09/15 07:25:26;;;;;;;5.20;4.70;;;;;;;19.57;82.06;156393.88;4971961;28;20880;-85
2023/09/15 07:27:53;;;;;;;7.83;6.70;;;;;;;19.69;81.70;156423.88;4975133;28;20468;-86
2023/09/15 07:30:19;;;;;;;9.23;6.13;;;;;;;19.83;81.63;156460.41;4964021;28;21985;-85
2023/09/15 07:32:47;;;;;;;7.43;5.87;;;;;;;19.99;80.36;156502.09;4963542;28;20573;-85
2023/09/15 07:35:15;;;;;;;7.07;5.70;;;;;;;20.15;80.65;156543.81;4966135;28;20597;-86
2023/09/15 07:37:42;;;;;;;6.87;6.17;;;;;;;20.31;79.57;156585.63;4973873;28;20483;-86
2023/09/15 07:40:09;;;;;;;6.77;6.07;;;;;;;20.50;78.29;156633.88;4964297;28;20960;-87
2023/09/15 07:42:37;;;;;;;7.60;5.77;;;;;;;20.67;78.68;156678.25;4984148;28;20648;-86
2023/09/15 07:45:04;;;;;;;9.17;6.50;;;;;;;20.68;78.32;156680.84;4974923;28;20459;-87
2023/09/15 07:47:31;;;;;;;6.63;5.83;;;;;;;20.83;76.97;156720.00;4977533;28;20909;-86
2023/09/15 07:49:59;;;;;;;8.43;6.43;;;;;;;20.81;76.19;156713.47;4975706;28;20483;-87
2023/09/15 07:52:27;;;;;;;7.53;6.47;;;;;;;20.82;76.89;156717.38;4971687;28;20458;-86
2023/09/15 07:54:54;;;;;;;6.67;5.60;;;;;;;20.90;77.62;156738.25;4974631;28;20501;-86
2023/09/15 07:57:21;;;;;;;7.20;6.17;;;;;;;20.92;76.14;156742.16;4978712;28;20564;-86
2023/09/15 07:59:47;;;;;;;6.50;5.77;;;;;;;20.97;76.60;156756.50;4961926;28;20560;-86
2023/09/15 08:02:14;;;;;;;6.47;5.77;;;;;;;21.17;76.06;156807.47;4965202;28;20480;-86
2023/09/15 08:04:42;;;;;;;6.60;5.90;;;;;;;21.18;75.38;156811.38;4977591;28;20469;-86
2023/09/15 08:07:10;;;;;;;6.73;6.03;;;;;;;21.17;75.12;156807.47;4963076;28;20453;-86
2023/09/15 08:09:37;;;;;;;8.00;6.20;;;;;;;21.18;75.55;156810.09;4963840;28;20464;-84
2023/09/15 08:12:04;;;;;;;7.50;6.47;;;;;;;21.24;75.25;156827.03;4969613;28;20453;-84
2023/09/15 08:14:30;;;;;;;7.80;5.97;;;;;;;21.33;75.31;156849.25;4952192;28;20462;-85
2023/09/15 08:16:58;;;;;;;6.70;6.00;;;;;;;21.32;74.13;156846.63;4977624;28;20473;-85
2023/09/15 08:19:25;;;;;;;6.90;6.20;;;;;;;21.30;74.99;156841.41;4976558;28;20978;-85
2023/09/15 08:21:52;;;;;;;13.73;8.13;;;;;;;21.23;74.09;156823.16;4980682;28;20831;-85
2023/09/15 08:24:20;;;;;;;7.97;7.17;;;;;;;21.16;75.80;156804.84;4963924;28;20480;-84
2023/09/15 08:26:47;;;;;;;7.23;5.80;;;;;;;21.24;75.66;156827.03;4946908;28;20449;-84
2023/09/15 08:29:14;;;;;;;7.57;6.87;;;;;;;21.29;75.20;156838.78;4961069;28;20493;-84
2023/09/15 08:31:41;;;;;;;7.70;6.27;;;;;;;21.33;74.53;156849.25;4973424;28;20472;-83
2023/09/15 08:34:07;;;;;;;7.53;6.30;;;;;;;21.35;75.36;156854.44;4963363;28;20486;-83
2023/09/15 08:36:34;;;;;;;7.47;6.77;;;;;;;21.16;75.34;156804.84;4973236;28;20470;-82
2023/09/15 08:39:02;;;;;;;9.20;6.63;;;;;;;20.98;76.06;156759.13;4980289;28;20464;-84
2023/09/15 08:41:32;;;;;;;6.47;5.87;;;;;;;20.92;76.86;156743.47;4987748;28;20544;-84
2023/09/15 08:43:59;;;;;;;6.07;5.47;;;;;;;21.00;76.11;156764.34;4962401;28;20450;-82
2023/09/15 08:46:26;;;;;;;7.30;6.60;;;;;;;21.08;75.61;156783.97;4970989;28;20461;-83
2023/09/15 08:48:55;;;;;;;6.37;5.77;;;;;;;21.00;76.87;156764.34;4975544;28;20458;-82
2023/09/15 08:51:22;;;;;;;6.80;6.17;;;;;;;20.98;76.57;156759.13;4964299;28;20435;-83
2023/09/15 08:53:51;;;;;;;6.67;5.97;;;;;;;20.99;76.56;156760.44;4976329;28;20464;-83
2023/09/15 08:56:18;;;;;;;6.90;6.30;;;;;;;21.08;77.10;156783.97;4974991;28;20461;-83
2023/09/15 08:58:46;;;;;;;7.77;6.97;;;;;;;21.23;76.18;156823.16;4976475;28;20465;-83
2023/09/15 09:01:16;;;;;;;6.83;6.23;;;;;;;21.31;75.61;156844.03;4997029;28;20523;-83
2023/09/15 09:03:43;;;;;;;8.10;6.60;;;;;;;21.37;76.10;156859.66;4978459;28;20453;-83
2023/09/15 09:06:11;;;;;;;7.73;6.97;;;;;;;21.29;75.81;156838.78;4994475;28;20453;-83
2023/09/15 09:08:39;;;;;;;8.03;7.30;;;;;;;21.00;76.01;156764.34;4975716;28;20467;-83
2023/09/15 09:11:06;;;;;;;7.70;6.90;;;;;;;21.04;77.51;156773.50;4977937;28;20491;-83
2023/09/15 09:13:33;;;;;;;8.10;7.17;;;;;;;21.11;77.30;156791.81;4997299;28;21164;-84
2023/09/15 09:16:02;;;;;;;8.63;7.03;;;;;;;20.97;77.59;156756.50;4969238;28;20442;-84
2023/09/15 09:18:29;;;;;;;10.50;6.87;;;;;;;20.87;78.37;156730.41;4967053;28;21002;-83
2023/09/15 09:20:55;;;;;;;13.77;6.87;;;;;;;20.92;78.46;156742.16;4986840;28;20436;-84
2023/09/15 09:23:22;;;;;;;7.80;7.00;;;;;;;21.00;78.33;156763.03;4984438;28;20472;-84
2023/09/15 09:25:49;;;;;;;9.10;7.13;;;;;;;20.95;79.05;156751.31;4982219;28;20464;-83
2023/09/15 09:28:16;;;;;;;7.13;6.47;;;;;;;20.95;79.10;156750.00;4998231;28;20452;-82
2023/09/15 09:30:43;;;;;;;7.60;6.90;;;;;;;20.82;79.58;156716.06;4969119;28;20820;-82
2023/09/15 09:33:12;;;;;;;8.73;7.10;;;;;;;20.96;79.94;156752.63;4977874;28;20461;-82
2023/09/15 09:35:38;;;;;;;9.20;7.00;;;;;;;21.00;79.15;156763.03;4997091;28;20440;-82
2023/09/15 09:38:05;;;;;;;8.63;7.73;;;;;;;21.16;78.64;156804.84;4966921;28;20467;-82
2023/09/15 09:40:33;;;;;;;10.27;7.47;;;;;;;21.08;78.63;156785.28;4994958;28;20469;-82
2023/09/15 09:42:59;;;;;;;8.27;7.37;;;;;;;20.95;79.74;156750.00;4995450;28;20454;-81
2023/09/15 09:45:26;;;;;;;8.50;7.70;;;;;;;21.03;79.09;156772.19;5001527;28;20488;-82
2023/09/15 09:47:54;;;;;;;8.93;7.30;;;;;;;21.09;79.42;156786.59;4982948;28;20472;-81
2023/09/15 09:50:22;;;;;;;7.60;6.87;;;;;;;21.16;80.08;156804.84;4970477;28;20457;-81
2023/09/15 09:52:49;;;;;;;6.43;5.80;;;;;;;21.19;79.31;156812.69;5002379;28;20457;-82
2023/09/15 09:55:15;;;;;;;7.30;6.47;;;;;;;21.30;78.28;156840.09;4989548;28;20998;-82
2023/09/15 09:57:42;;;;;;;10.90;6.97;;;;;;;21.26;78.13;156830.94;5000437;28;20487;-82
2023/09/15 10:00:10;;;;;;;7.03;6.10;;;;;;;21.30;78.41;156841.41;4972571;28;20486;-81
2023/09/15 10:02:37;;;;;;;9.37;7.20;;;;;;;21.26;78.42;156830.94;4979034;28;20871;-82
2023/09/15 10:05:04;;;;;;;7.23;6.53;;;;;;;21.32;78.34;156845.31;4981882;28;20999;-81
2023/09/15 10:07:32;;;;;;;11.27;7.33;;;;;;;21.23;77.78;156823.16;4993694;28;20448;-82
2023/09/15 10:09:59;;;;;;;8.43;7.00;;;;;;;21.38;78.44;156862.28;4999970;28;20456;-81
2023/09/15 10:12:26;;;;;;;8.63;6.47;;;;;;;21.50;76.89;156893.59;4984796;28;20455;-82
2023/09/15 10:14:53;;;;;;;7.57;6.67;;;;;;;21.44;77.48;156877.97;4982034;28;20539;-81
2023/09/15 10:17:20;;;;;;;7.90;6.83;;;;;;;21.44;78.49;156877.97;4997151;28;20484;-81
2023/09/15 10:19:47;;;;;;;8.30;5.73;;;;;;;21.58;78.93;156914.47;5002144;28;20476;-81
2023/09/15 10:22:14;;;;;;;7.10;6.47;;;;;;;21.52;76.97;156898.84;4998508;28;20833;-81
2023/09/15 10:24:47;;;;;;;8.20;7.30;;;;;;;21.39;77.48;156864.91;4996328;28;20461;-81
2023/09/15 10:27:13;;;;;;;7.60;6.50;;;;;;;21.34;78.28;156850.56;4975945;28;21031;-81
2023/09/15 10:29:40;;;;;;;6.70;6.10;;;;;;;21.51;78.42;156896.22;4986543;28;20456;-81
2023/09/15 10:32:06;;;;;;;9.00;7.40;;;;;;;21.62;77.39;156924.97;4980513;28;20500;-81
2023/09/15 10:34:33;;;;;;;9.80;6.90;;;;;;;21.62;77.34;156924.97;4998397;28;20819;-82
2023/09/15 10:37:01;;;;;;;9.10;7.00;;;;;;;21.64;77.75;156928.84;4993139;28;21066;-81
2023/09/15 10:39:36;;;;;;;7.80;6.90;;;;;;;21.71;78.31;156948.44;4996220;28;20449;-82
2023/09/15 10:42:07;;;;;;;7.47;6.73;;;;;;;21.81;76.83;156974.56;5001687;28;20642;-81
2023/09/15 10:44:34;;;;;;;7.40;6.67;;;;;;;21.64;76.84;156930.16;4995233;28;20456;-82
2023/09/15 10:47:01;;;;;;;8.47;6.80;;;;;;;21.61;77.13;156922.31;4998521;28;20451;-82
2023/09/15 10:49:28;;;;;;;6.70;6.10;;;;;;;21.85;77.50;156983.69;4963171;28;20600;-81
2023/09/15 10:51:55;;;;;;;8.20;7.40;;;;;;;21.87;76.47;156988.94;4997286;28;20448;-82
2023/09/15 10:54:24;;;;;;;6.70;6.10;;;;;;;21.81;76.77;156974.56;4995470;28;20464;-82
2023/09/15 10:56:51;;;;;;;6.93;6.23;;;;;;;21.80;76.78;156971.94;4977112;28;20815;-82
2023/09/15 10:59:19;;;;;;;7.30;6.60;;;;;;;21.69;77.74;156943.22;4982063;28;20485;-82
2023/09/15 11:01:46;;;;;;;7.67;6.20;;;;;;;21.78;77.86;156966.75;4998825;28;20449;-82
2023/09/15 11:04:17;;;;;;;8.60;6.33;;;;;;;21.88;76.82;156991.56;4980362;28;20462;-81
2023/09/15 11:06:46;;;;;;;7.57;6.07;;;;;;;21.90;77.47;156995.47;4966919;28;20446;-81
2023/09/15 11:09:14;;;;;;;6.87;6.17;;;;;;;22.02;77.34;157026.84;4998051;28;20444;-81
2023/09/15 11:11:43;;;;;;;6.90;6.20;;;;;;;22.03;76.09;157030.72;4996820;28;20483;-82
2023/09/15 11:14:13;;;;;;;5.90;5.23;;;;;;;22.06;75.80;157037.25;4982861;28;20460;-82
2023/09/15 11:16:48;;;;;;;7.50;6.70;;;;;;;22.13;74.86;157055.56;4982246;28;20441;-82
2023/09/15 11:19:18;;;;;;;6.73;6.07;;;;;;;22.12;75.31;157052.94;4965346;28;20463;-82
2023/09/15 11:21:45;;;;;;;6.50;5.90;;;;;;;22.09;75.60;157045.09;4996147;28;20548;-82
2023/09/15 11:24:12;;;;;;;6.57;5.87;;;;;;;22.24;75.73;157084.31;4965984;28;20453;-82